Terminal Aerodrome Forecast
Issued by NWS

Home | Current Version | Previous Version | Text Only | Print | Product List | Glossary On
Versions: 1 2 3 4 5 6 7 8 9 10 11 12 13 14 15 16
000
FTUS46 KMFR 232300
TAFOTH
TAF
KOTH 232339Z 2400/2424 20010G20KT P6SM -RA BKN035 OVC050
     FM240600 20015G22KT 3SM RA SCT005 BKN015 OVC020
     FM241500 17008KT P6SM -RA BKN005 OVC015
     FM242000 22012G18KT P6SM -RA BKN025 OVC035=

USA.gov is the U.S. government's official web portal to all federal, state and local government web resources and services.